createdAt,value
2019-04-25T00:01:12.352Z,90.73
2019-04-25T00:03:43.669Z,90.65
2019-04-25T00:06:15.747Z,90.49
2019-04-25T00:08:46.046Z,90.34
2019-04-25T00:11:16.652Z,90.19
2019-04-25T00:13:47.873Z,90.04
2019-04-25T00:16:21.573Z,89.83
2019-04-25T00:18:52.136Z,89.50
2019-04-25T00:21:44.589Z,89.20
2019-04-25T00:24:39.606Z,89.06
2019-04-25T00:27:09.971Z,89.00
2019-04-25T00:29:40.991Z,88.93
2019-04-25T00:32:12.576Z,89.09
2019-04-25T00:34:45.434Z,89.09
2019-04-25T00:37:16.172Z,88.72
2019-04-25T00:39:47.486Z,88.42
2019-04-25T00:42:18.072Z,88.01
2019-04-25T00:44:49.429Z,87.87
2019-04-25T00:47:21.666Z,88.02
2019-04-25T00:49:53.274Z,88.10
2019-04-25T00:52:25.321Z,88.00
2019-04-25T00:55:01.916Z,88.04
2019-04-25T00:57:34.304Z,88.12
2019-04-25T01:00:22.195Z,88.17
2019-04-25T01:02:53.487Z,88.16
2019-04-25T01:05:27.893Z,88.18
2019-04-25T01:08:02.104Z,88.23
2019-04-25T01:10:31.578Z,88.27
2019-04-25T01:13:03.075Z,88.27
2019-04-25T01:15:35.806Z,88.23
2019-04-25T01:18:06.641Z,88.28
2019-04-25T01:20:38.734Z,88.50
2019-04-25T01:23:09.125Z,88.71
2019-04-25T01:25:42.692Z,88.84
2019-04-25T01:28:13.154Z,88.95
2019-04-25T01:30:46.283Z,89.02
2019-04-25T01:33:16.771Z,89.16
2019-04-25T01:35:55.780Z,89.28
2019-04-25T01:38:31.207Z,89.35
2019-04-25T01:41:20.476Z,89.32
2019-04-25T01:43:59.681Z,89.15
2019-04-25T01:46:29.970Z,89.06
2019-04-25T01:51:37.393Z,88.70
2019-04-25T01:54:10.821Z,88.61
2019-04-25T01:56:41.166Z,88.47
2019-04-25T01:59:11.754Z,88.20
2019-04-25T02:01:42.181Z,88.08
2019-04-25T02:04:13.345Z,88.01
2019-04-25T02:06:43.626Z,87.84
2019-04-25T02:09:14.668Z,87.85
2019-04-25T02:11:54.393Z,87.94
2019-04-25T02:14:24.841Z,88.08
2019-04-25T02:16:56.266Z,88.08
2019-04-25T02:19:28.825Z,88.12
2019-04-25T02:21:59.880Z,88.07
2019-04-25T02:24:33.911Z,88.03
2019-04-25T02:27:04.740Z,87.67
2019-04-25T02:29:37.618Z,87.54
2019-04-25T02:32:09.145Z,87.04
2019-04-25T02:34:39.750Z,86.66
2019-04-25T02:37:10.622Z,86.01
2019-04-25T02:39:41.158Z,85.92
2019-04-25T02:42:16.209Z,85.83
2019-04-25T02:44:48.571Z,85.50
2019-04-25T02:47:46.970Z,84.49
2019-04-25T02:50:44.090Z,84.57
2019-04-25T02:53:36.515Z,83.45
2019-04-25T02:56:07.915Z,82.79
2019-04-25T02:58:35.821Z,81.96
2019-04-25T03:01:18.033Z,81.94
2019-04-25T03:03:47.277Z,81.94
2019-04-25T03:06:15.707Z,81.91
2019-04-25T03:08:45.981Z,81.91
2019-04-25T03:11:18.147Z,81.49
2019-04-25T03:13:48.624Z,81.21
2019-04-25T03:16:21.275Z,80.42
2019-04-25T03:19:02.921Z,80.34
2019-04-25T03:21:35.283Z,80.25
2019-04-25T03:24:10.228Z,79.61
2019-04-25T03:26:40.633Z,78.99
2019-04-25T03:29:09.948Z,78.70
2019-04-25T03:31:40.894Z,79.06
2019-04-25T03:34:15.994Z,79.08
2019-04-25T03:36:44.604Z,78.73
2019-04-25T03:39:16.498Z,78.62
2019-04-25T03:41:47.973Z,78.86
2019-04-25T03:44:18.224Z,79.16
2019-04-25T03:46:48.990Z,78.87
2019-04-25T03:49:19.304Z,78.98
2019-04-25T03:51:51.701Z,78.06
2019-04-25T03:54:23.136Z,78.46
2019-04-25T03:56:56.145Z,78.29
2019-04-25T03:59:27.524Z,78.10
2019-04-25T04:02:01.172Z,77.97
2019-04-25T04:04:33.383Z,77.30
2019-04-25T04:07:08.321Z,76.76
2019-04-25T04:09:36.581Z,76.31
2019-04-25T04:12:07.986Z,75.55
2019-04-25T04:14:38.630Z,75.52
2019-04-25T04:17:16.055Z,75.53
2019-04-25T04:19:53.795Z,76.10
2019-04-25T04:22:30.786Z,76.19
2019-04-25T04:25:01.220Z,75.94
2019-04-25T04:27:31.868Z,75.32
2019-04-25T04:30:04.113Z,75.89
2019-04-25T04:32:34.786Z,74.99
2019-04-25T04:35:05.414Z,74.36
2019-04-25T04:37:36.441Z,73.48
2019-04-25T04:40:08.040Z,73.41
2019-04-25T04:42:40.060Z,73.84
2019-04-25T04:45:10.489Z,73.97
2019-04-25T04:47:43.326Z,73.83
2019-04-25T04:50:15.219Z,73.74
2019-04-25T04:52:46.175Z,73.49
2019-04-25T04:55:18.303Z,72.71
2019-04-25T04:57:49.273Z,72.14
2019-04-25T05:00:19.895Z,71.87
2019-04-25T05:03:07.404Z,71.25
2019-04-25T05:06:11.681Z,71.48
2019-04-25T05:08:46.223Z,70.97
2019-04-25T05:11:18.167Z,70.35
2019-04-25T05:14:04.023Z,69.61
2019-04-25T05:16:33.687Z,69.32
2019-04-25T05:19:03.979Z,67.79
2019-04-25T05:21:34.596Z,67.56
2019-04-25T05:24:04.859Z,67.44
2019-04-25T05:26:35.206Z,67.00
2019-04-25T05:29:05.740Z,66.94
2019-04-25T05:31:46.171Z,66.08
2019-04-25T05:34:17.232Z,66.29
2019-04-25T05:36:48.908Z,65.52
2019-04-25T05:39:20.281Z,65.46
2019-04-25T05:42:18.529Z,64.46
2019-04-25T05:44:49.095Z,64.21
2019-04-25T05:47:22.332Z,62.93
2019-04-25T05:49:54.125Z,62.54
2019-04-25T05:52:25.245Z,61.61
2019-04-25T05:54:56.338Z,61.22
2019-04-25T05:57:26.969Z,61.86
2019-04-25T05:59:57.738Z,60.70
2019-04-25T06:02:28.045Z,60.44
2019-04-25T06:04:58.486Z,60.76
2019-04-25T06:07:29.112Z,60.49
2019-04-25T06:10:26.735Z,60.78
2019-04-25T06:13:15.153Z,60.05
2019-04-25T06:15:47.525Z,59.24
2019-04-25T06:18:33.881Z,58.51
2019-04-25T06:21:07.479Z,59.00
2019-04-25T06:24:13.297Z,58.21
2019-04-25T06:26:51.917Z,57.65
2019-04-25T06:29:23.936Z,57.22
2019-04-25T06:32:05.616Z,56.09
2019-04-25T06:34:31.678Z,54.94
2019-04-25T06:37:04.247Z,54.52
2019-04-25T06:39:34.154Z,54.21
2019-04-25T06:42:04.829Z,53.29
2019-04-25T06:44:40.332Z,53.86
2019-04-25T06:47:27.551Z,53.86
2019-04-25T06:49:59.945Z,53.57
2019-04-25T06:52:34.422Z,54.08
2019-04-25T06:55:04.997Z,54.20
2019-04-25T06:57:35.332Z,54.87
2019-04-25T07:00:07.928Z,55.20
2019-04-25T07:02:39.932Z,53.52
2019-04-25T07:05:26.178Z,52.20
2019-04-25T07:07:48.218Z,52.24
2019-04-25T07:10:19.013Z,51.52
2019-04-25T07:12:49.352Z,50.89
2019-04-25T07:15:19.822Z,49.35
2019-04-25T07:17:50.293Z,48.31
2019-04-25T07:20:20.960Z,48.42
2019-04-25T07:22:51.294Z,48.69
2019-04-25T07:25:26.350Z,47.49
2019-04-25T07:28:29.010Z,46.64
2019-04-25T07:31:33.508Z,46.83
2019-04-25T07:34:13.294Z,45.92
2019-04-25T07:36:45.552Z,46.29
2019-04-25T07:39:16.746Z,47.43
2019-04-25T07:41:47.577Z,48.79
2019-04-25T07:44:22.005Z,49.64
2019-04-25T07:46:51.196Z,50.06
2019-04-25T07:49:23.453Z,50.37
2019-04-25T07:51:54.159Z,50.75
2019-04-25T07:54:26.423Z,50.69
2019-04-25T07:56:56.582Z,51.00
2019-04-25T07:59:27.775Z,50.19
2019-04-25T08:01:58.454Z,50.65
2019-04-25T08:04:29.062Z,50.24
2019-04-25T08:06:59.694Z,46.99
2019-04-25T08:09:30.321Z,46.84
2019-04-25T08:12:00.896Z,47.55
2019-04-25T08:14:45.971Z,43.76
2019-04-25T08:17:18.959Z,35.20
2019-04-25T08:19:49.748Z,29.49
2019-04-25T08:22:20.460Z,25.83
2019-04-25T08:24:51.090Z,25.21
2019-04-25T08:27:23.161Z,23.20
2019-04-25T08:29:54.262Z,23.24
2019-04-25T08:32:25.406Z,22.76
2019-04-25T08:34:55.942Z,23.31
2019-04-25T08:37:26.262Z,22.57
2019-04-25T08:39:56.608Z,24.84
2019-04-25T08:42:27.199Z,28.18
2019-04-25T08:44:57.819Z,29.57
2019-04-25T08:47:28.297Z,31.15
2019-04-25T08:50:08.306Z,34.32
2019-04-25T08:52:38.695Z,34.32
2019-04-25T08:55:15.067Z,35.67
2019-04-25T08:57:55.139Z,36.73
2019-04-25T09:00:38.331Z,36.94
2019-04-25T09:03:12.163Z,37.05
2019-04-25T09:05:46.260Z,37.74
2019-04-25T09:08:17.346Z,34.03
2019-04-25T09:13:23.830Z,27.22
2019-04-25T09:15:56.635Z,28.75
2019-04-25T09:18:27.213Z,32.58
2019-04-25T09:20:57.841Z,35.22
2019-04-25T09:23:28.554Z,35.01
2019-04-25T09:28:38.048Z,34.25
2019-04-25T09:31:08.195Z,34.50
2019-04-25T09:33:39.146Z,36.05
2019-04-25T09:36:09.733Z,37.20
2019-04-25T09:38:40.983Z,37.95
2019-04-25T09:41:13.856Z,39.30
2019-04-25T09:43:46.622Z,39.34
2019-04-25T09:46:25.124Z,39.57
2019-04-25T09:49:10.109Z,38.61
2019-04-25T09:52:03.794Z,36.71
2019-04-25T09:54:48.771Z,37.50
2019-04-25T09:57:36.890Z,35.39
2019-04-25T10:00:13.623Z,33.17
2019-04-25T10:02:47.022Z,33.81
2019-04-25T10:05:17.686Z,33.93
2019-04-25T10:07:48.967Z,29.13
2019-04-25T10:10:19.802Z,29.13
2019-04-25T10:12:50.516Z,29.07
2019-04-25T10:15:47.958Z,28.80
2019-04-25T10:18:18.731Z,29.12
2019-04-25T10:20:49.682Z,31.10
2019-04-25T10:23:21.016Z,32.23
2019-04-25T10:25:53.660Z,33.51
2019-04-25T10:28:24.800Z,34.30
2019-04-25T10:30:56.497Z,35.67
2019-04-25T10:33:27.972Z,36.26
2019-04-25T10:36:01.131Z,37.24
2019-04-25T10:38:33.601Z,38.64
2019-04-25T10:41:04.493Z,39.25
2019-04-25T10:43:36.476Z,39.63
2019-04-25T10:46:07.178Z,38.54
2019-04-25T10:48:39.911Z,36.03
2019-04-25T10:51:10.730Z,35.63
2019-04-25T10:53:42.068Z,36.01
2019-04-25T10:56:14.164Z,36.75
2019-04-25T10:58:46.662Z,37.40
2019-04-25T11:01:17.812Z,38.03
2019-04-25T11:04:08.912Z,37.40
2019-04-25T11:06:41.793Z,35.05
2019-04-25T11:09:20.119Z,32.35
2019-04-25T11:11:51.173Z,31.22
2019-04-25T11:14:23.784Z,29.77
2019-04-25T11:16:56.596Z,26.78
2019-04-25T11:19:27.235Z,26.36
2019-04-25T11:21:57.621Z,26.29
2019-04-25T11:24:28.188Z,26.29
2019-04-25T11:26:58.875Z,27.51
2019-04-25T11:29:29.278Z,27.74
2019-04-25T11:32:00.469Z,27.91
2019-04-25T11:34:31.213Z,28.38
2019-04-25T11:37:03.708Z,29.69
2019-04-25T11:39:47.293Z,31.86
2019-04-25T11:42:19.783Z,34.73
2019-04-25T11:44:50.396Z,34.73
2019-04-25T11:47:24.255Z,35.55
2019-04-25T11:49:55.794Z,35.67
2019-04-25T11:52:29.987Z,35.22
2019-04-25T11:54:59.037Z,33.67
2019-04-25T11:57:31.378Z,31.65
2019-04-25T12:00:01.931Z,30.87
2019-04-25T12:02:34.390Z,31.35
2019-04-25T12:05:06.536Z,31.58
2019-04-25T12:07:37.173Z,33.86
2019-04-25T12:10:08.368Z,33.86
2019-04-25T12:12:40.662Z,34.07
2019-04-25T12:15:13.230Z,33.80
2019-04-25T12:17:44.846Z,35.18
2019-04-25T12:20:15.384Z,35.47
2019-04-25T12:22:48.228Z,35.23
2019-04-25T12:25:18.898Z,35.51
2019-04-25T12:27:51.376Z,35.64
2019-04-25T12:30:36.416Z,35.55
2019-04-25T12:32:57.624Z,35.27
2019-04-25T12:35:28.293Z,35.12
2019-04-25T12:37:59.204Z,34.85
2019-04-25T12:40:29.540Z,35.01
2019-04-25T12:43:00.429Z,33.44
2019-04-25T12:45:53.135Z,33.44
2019-04-25T12:48:23.658Z,34.01
2019-04-25T12:50:55.423Z,33.56
2019-04-25T12:53:26.380Z,33.44
2019-04-25T12:55:57.115Z,33.27
2019-04-25T12:58:28.382Z,33.56
2019-04-25T13:01:00.056Z,33.41
2019-04-25T13:03:32.047Z,32.99
2019-04-25T13:06:03.176Z,32.18
2019-04-25T13:08:34.134Z,32.88
2019-04-25T13:11:08.553Z,32.49
2019-04-25T13:13:37.453Z,32.63
2019-04-25T13:16:07.919Z,31.70
2019-04-25T13:18:39.482Z,32.00
2019-04-25T13:21:10.252Z,32.26
2019-04-25T13:23:40.857Z,31.98
2019-04-25T13:26:11.283Z,30.83
2019-04-25T13:29:09.524Z,29.06
2019-04-25T13:31:59.109Z,29.06
2019-04-25T13:34:36.777Z,29.35
2019-04-25T13:37:07.803Z,29.14
2019-04-25T13:39:38.418Z,29.24
2019-04-25T13:42:09.166Z,29.00
2019-04-25T13:44:39.775Z,29.00
2019-04-25T13:47:14.034Z,29.74
2019-04-25T13:49:45.031Z,30.04
2019-04-25T13:52:17.716Z,30.68
2019-04-25T13:54:48.475Z,30.67
2019-04-25T13:57:20.760Z,30.69
2019-04-25T13:59:52.162Z,30.55
2019-04-25T14:02:24.678Z,30.42
2019-04-25T14:04:55.401Z,30.62
2019-04-25T14:07:27.329Z,30.77
2019-04-25T14:09:57.968Z,30.77
2019-04-25T14:12:32.449Z,31.26
2019-04-25T14:15:10.617Z,31.26
2019-04-25T14:18:05.040Z,31.44
2019-04-25T14:20:40.558Z,31.02
2019-04-25T14:23:13.446Z,30.44
2019-04-25T14:25:43.267Z,30.66
2019-04-25T14:28:14.214Z,31.22
2019-04-25T14:30:45.049Z,31.79
2019-04-25T14:33:15.649Z,32.40
2019-04-25T14:35:46.381Z,32.48
2019-04-25T14:38:16.980Z,32.20
2019-04-25T14:40:47.648Z,32.02
2019-04-25T14:43:17.920Z,31.25
2019-04-25T14:45:48.564Z,31.74
2019-04-25T14:48:18.907Z,32.20
2019-04-25T14:50:51.179Z,32.20
2019-04-25T14:53:28.024Z,32.47
2019-04-25T14:56:16.285Z,32.84
2019-04-25T14:58:47.181Z,33.16
2019-04-25T15:01:20.450Z,33.56
2019-04-25T15:03:51.186Z,33.84
2019-04-25T15:06:23.378Z,34.09
2019-04-25T15:08:55.620Z,34.18
2019-04-25T15:11:26.956Z,34.19
2019-04-25T15:13:57.711Z,34.27
2019-04-25T15:16:29.051Z,34.31
2019-04-25T15:19:00.236Z,34.42
2019-04-25T15:21:32.244Z,34.28
2019-04-25T15:24:02.994Z,34.29
2019-04-25T15:26:35.410Z,34.40
2019-04-25T15:29:06.203Z,34.25
2019-04-25T15:31:36.774Z,34.10
2019-04-25T15:34:07.365Z,33.99
2019-04-25T15:36:47.435Z,33.90
2019-04-25T15:39:39.807Z,34.10
2019-04-25T15:42:38.860Z,34.26
2019-04-25T15:45:31.285Z,34.59
2019-04-25T15:48:04.092Z,34.84
2019-04-25T15:50:35.065Z,35.16
2019-04-25T15:53:08.122Z,35.26
2019-04-25T15:55:38.726Z,35.32
2019-04-25T15:58:09.054Z,35.05
2019-04-25T16:00:40.141Z,34.96
2019-04-25T16:03:15.931Z,35.22
2019-04-25T16:05:46.510Z,36.53
2019-04-25T16:08:16.846Z,38.07
2019-04-25T16:10:47.407Z,38.87
2019-04-25T16:13:19.612Z,39.21
2019-04-25T16:15:50.585Z,39.50
2019-04-25T16:18:21.231Z,40.03
2019-04-25T16:20:51.825Z,40.17
2019-04-25T16:23:22.510Z,40.49
2019-04-25T16:25:52.946Z,40.91
2019-04-25T16:28:23.749Z,40.89
2019-04-25T16:30:54.171Z,40.97
2019-04-25T16:33:24.798Z,41.26
2019-04-25T16:35:58.058Z,41.56
2019-04-25T16:38:29.812Z,41.50
2019-04-25T16:41:00.364Z,41.93
2019-04-25T16:43:35.231Z,42.49
2019-04-25T16:46:05.832Z,43.12
2019-04-25T16:48:36.844Z,43.12
2019-04-25T16:51:07.450Z,44.17
2019-04-25T16:53:38.491Z,44.45
2019-04-25T16:56:09.072Z,44.66
2019-04-25T16:58:39.705Z,45.34
2019-04-25T17:01:12.375Z,46.41
2019-04-25T17:03:43.101Z,46.94
2019-04-25T17:06:14.419Z,46.94
2019-04-25T17:08:45.463Z,47.45
2019-04-25T17:11:17.860Z,47.30
2019-04-25T17:13:57.990Z,47.34
2019-04-25T17:16:46.406Z,47.31
2019-04-25T17:19:21.742Z,47.45
2019-04-25T17:21:52.381Z,47.41
2019-04-25T17:24:23.517Z,47.69
2019-04-25T17:26:54.148Z,47.76
2019-04-25T17:29:25.008Z,47.79
2019-04-25T17:32:14.284Z,47.96
2019-04-25T17:35:09.777Z,47.74
2019-04-25T17:37:46.547Z,47.32
2019-04-25T17:40:20.607Z,47.57
2019-04-25T17:42:51.455Z,47.63
2019-04-25T17:45:26.043Z,47.03
2019-04-25T17:47:56.396Z,47.10
2019-04-25T17:50:26.984Z,47.58
2019-04-25T17:52:57.525Z,47.29
2019-04-25T17:55:28.724Z,47.52
2019-04-25T17:58:00.097Z,47.46
2019-04-25T18:00:37.780Z,48.86
2019-04-25T18:03:10.862Z,51.50
2019-04-25T18:05:41.888Z,52.67
2019-04-25T18:08:12.328Z,54.17
2019-04-25T18:10:42.799Z,53.02
2019-04-25T18:13:14.120Z,52.85
2019-04-25T18:16:06.929Z,52.71
2019-04-25T18:18:47.350Z,52.40
2019-04-25T18:21:19.957Z,52.63
2019-04-25T18:24:27.668Z,53.26
2019-04-25T18:27:17.222Z,53.85
2019-04-25T18:29:49.620Z,54.95
2019-04-25T18:32:23.528Z,55.57
2019-04-25T18:34:59.056Z,56.26
2019-04-25T18:37:47.320Z,56.84
2019-04-25T18:40:28.568Z,57.11
2019-04-25T18:43:10.125Z,57.24
2019-04-25T18:45:44.475Z,58.32
2019-04-25T18:48:15.761Z,58.95
2019-04-25T18:50:46.788Z,59.48
2019-04-25T18:53:37.700Z,60.28
2019-04-25T18:56:19.242Z,62.89
2019-04-25T18:59:03.277Z,63.77
2019-04-25T19:01:44.501Z,63.76
2019-04-25T19:04:23.427Z,66.09
2019-04-25T19:06:58.299Z,75.11
2019-04-25T19:09:27.270Z,75.11
2019-04-25T19:11:59.767Z,77.55
2019-04-25T19:14:30.169Z,79.65
2019-04-25T19:17:02.233Z,80.93
2019-04-25T19:19:32.966Z,82.26
2019-04-25T19:22:05.247Z,82.79
2019-04-25T19:24:35.767Z,83.49
2019-04-25T19:27:06.434Z,84.04
2019-04-25T19:29:40.333Z,84.37
2019-04-25T19:32:11.758Z,84.51
2019-04-25T19:35:01.498Z,84.93
2019-04-25T19:37:51.037Z,85.30
2019-04-25T19:40:40.743Z,86.13
2019-04-25T19:43:25.659Z,86.13
2019-04-25T19:46:02.425Z,86.20
2019-04-25T19:48:29.580Z,86.27
2019-04-25T19:51:00.261Z,86.48
2019-04-25T19:53:34.330Z,86.48
2019-04-25T19:56:04.687Z,86.45
2019-04-25T19:58:35.103Z,86.51
2019-04-25T20:01:05.647Z,86.71
2019-04-25T20:03:58.485Z,86.81
2019-04-25T20:06:47.514Z,86.92
2019-04-25T20:09:39.754Z,87.22
2019-04-25T20:12:24.018Z,87.50
2019-04-25T20:14:57.885Z,87.69
2019-04-25T20:17:28.376Z,87.85
2019-04-25T20:19:59.268Z,87.94
2019-04-25T20:22:30.012Z,88.02
2019-04-25T20:25:03.302Z,88.07
2019-04-25T20:27:37.334Z,88.16
2019-04-25T20:30:08.295Z,88.20
2019-04-25T20:32:39.060Z,88.23
2019-04-25T20:35:14.455Z,88.29
2019-04-25T20:37:47.185Z,88.35
2019-04-25T20:40:18.142Z,88.39
2019-04-25T20:42:49.705Z,88.48
2019-04-25T20:45:25.818Z,88.55
2019-04-25T20:47:56.942Z,88.60
2019-04-25T20:50:30.840Z,88.70
2019-04-25T20:53:10.351Z,88.76
2019-04-25T20:55:42.569Z,88.80
2019-04-25T20:58:15.859Z,88.85
2019-04-25T21:00:49.751Z,88.88
2019-04-25T21:03:20.635Z,88.92
2019-04-25T21:06:00.266Z,89.04
2019-04-25T21:08:31.973Z,89.10
2019-04-25T21:11:02.650Z,88.72
2019-04-25T21:13:46.022Z,88.72
2019-04-25T21:16:33.785Z,89.25
2019-04-25T21:19:10.613Z,89.31
2019-04-25T21:21:42.325Z,89.37
2019-04-25T21:24:12.949Z,89.38
2019-04-25T21:26:43.277Z,89.40
2019-04-25T21:29:14.126Z,89.45
2019-04-25T21:31:44.790Z,89.50
2019-04-25T21:34:25.470Z,89.52
2019-04-25T21:36:47.930Z,89.57
2019-04-25T21:39:28.040Z,89.66
2019-04-25T21:42:08.563Z,89.68
2019-04-25T21:44:39.171Z,89.71
2019-04-25T21:47:09.536Z,89.76
2019-04-25T21:49:40.328Z,89.83
2019-04-25T21:52:10.972Z,89.88
2019-04-25T21:54:42.210Z,89.86
2019-04-25T21:57:12.685Z,89.86
2019-04-25T21:59:44.522Z,90.13
2019-04-25T22:02:15.215Z,90.19
2019-04-25T22:04:46.329Z,89.79
2019-04-25T22:07:16.902Z,89.79
2019-04-25T22:09:47.691Z,90.26
2019-04-25T22:12:18.549Z,90.28
2019-04-25T22:14:49.007Z,90.32
2019-04-25T22:17:19.306Z,90.33
2019-04-25T22:19:50.627Z,90.30
2019-04-25T22:22:22.199Z,90.24
2019-04-25T22:24:53.029Z,90.20
2019-04-25T22:27:28.870Z,90.04
2019-04-25T22:30:01.796Z,89.93
2019-04-25T22:32:59.495Z,89.82
2019-04-25T22:35:46.050Z,89.75
2019-04-25T22:38:16.888Z,89.67
2019-04-25T22:40:47.192Z,89.55
2019-04-25T22:43:17.881Z,89.52
2019-04-25T22:45:48.708Z,89.50
2019-04-25T22:48:26.016Z,89.50
2019-04-25T22:50:56.929Z,89.47
2019-04-25T22:53:27.230Z,89.46
2019-04-25T22:55:57.798Z,89.45
2019-04-25T22:58:28.204Z,89.45
2019-04-25T23:00:58.877Z,89.46
2019-04-25T23:03:37.921Z,89.52
2019-04-25T23:06:08.461Z,89.55
2019-04-25T23:08:39.220Z,89.56
2019-04-25T23:11:10.603Z,89.61
2019-04-25T23:13:41.133Z,89.59
2019-04-25T23:16:11.911Z,89.57
2019-04-25T23:18:44.404Z,89.58
2019-04-25T23:21:14.812Z,89.58
2019-04-25T23:23:45.888Z,89.64
2019-04-25T23:26:44.292Z,89.73
2019-04-25T23:29:16.529Z,89.81
2019-04-25T23:31:47.196Z,89.84
2019-04-25T23:34:17.992Z,89.88
2019-04-25T23:36:48.294Z,89.90
2019-04-25T23:39:18.722Z,89.92
2019-04-25T23:41:49.042Z,89.91
2019-04-25T23:44:19.607Z,89.92
2019-04-25T23:46:50.100Z,89.87
2019-04-25T23:49:20.371Z,89.81
2019-04-25T23:51:50.845Z,89.71
2019-04-25T23:54:24.710Z,89.61
2019-04-25T23:56:55.229Z,89.58
2019-04-25T23:59:25.538Z,89.56
